sensor_id;sensor_type;location;lat;lon;timestamp;P1;durP1;ratioP1;P2;durP2;ratioP2
71767;SDS011;59604;52.138;5.446;2022-12-18T00:01:04;44.72;;;12.80;;
71767;SDS011;59604;52.138;5.446;2022-12-18T00:03:35;43.30;;;13.75;;
71767;SDS011;59604;52.138;5.446;2022-12-18T00:06:02;43.55;;;13.13;;
71767;SDS011;59604;52.138;5.446;2022-12-18T00:08:29;46.05;;;13.48;;
71767;SDS011;59604;52.138;5.446;2022-12-18T00:10:56;46.83;;;13.02;;
71767;SDS011;59604;52.138;5.446;2022-12-18T00:13:32;48.95;;;13.93;;
71767;SDS011;59604;52.138;5.446;2022-12-18T00:16:03;50.53;;;13.55;;
71767;SDS011;59604;52.138;5.446;2022-12-18T00:18:31;45.20;;;13.52;;
71767;SDS011;59604;52.138;5.446;2022-12-18T00:20:59;54.50;;;15.07;;
71767;SDS011;59604;52.138;5.446;2022-12-18T00:23:28;48.15;;;13.77;;
71767;SDS011;59604;52.138;5.446;2022-12-18T00:25:58;47.63;;;14.07;;
71767;SDS011;59604;52.138;5.446;2022-12-18T00:28:26;48.92;;;14.88;;
71767;SDS011;59604;52.138;5.446;2022-12-18T00:31:02;47.33;;;13.57;;
71767;SDS011;59604;52.138;5.446;2022-12-18T00:33:37;46.22;;;14.48;;
71767;SDS011;59604;52.138;5.446;2022-12-18T00:36:06;44.25;;;13.75;;
71767;SDS011;59604;52.138;5.446;2022-12-18T00:38:35;46.30;;;14.57;;
71767;SDS011;59604;52.138;5.446;2022-12-18T00:41:02;49.72;;;15.32;;
71767;SDS011;59604;52.138;5.446;2022-12-18T00:43:29;52.80;;;14.45;;
71767;SDS011;59604;52.138;5.446;2022-12-18T00:45:56;54.95;;;14.50;;
71767;SDS011;59604;52.138;5.446;2022-12-18T00:48:22;48.35;;;13.60;;
71767;SDS011;59604;52.138;5.446;2022-12-18T00:50:49;42.58;;;14.80;;
71767;SDS011;59604;52.138;5.446;2022-12-18T00:53:16;53.30;;;15.15;;
71767;SDS011;59604;52.138;5.446;2022-12-18T00:55:44;44.75;;;13.75;;
71767;SDS011;59604;52.138;5.446;2022-12-18T00:58:12;45.35;;;13.75;;
71767;SDS011;59604;52.138;5.446;2022-12-18T01:00:39;50.65;;;15.35;;
71767;SDS011;59604;52.138;5.446;2022-12-18T01:03:07;46.30;;;14.68;;
71767;SDS011;59604;52.138;5.446;2022-12-18T01:05:34;46.63;;;13.88;;
71767;SDS011;59604;52.138;5.446;2022-12-18T01:08:00;43.55;;;14.65;;
71767;SDS011;59604;52.138;5.446;2022-12-18T01:10:27;50.03;;;14.75;;
71767;SDS011;59604;52.138;5.446;2022-12-18T01:12:53;49.25;;;15.05;;
71767;SDS011;59604;52.138;5.446;2022-12-18T01:15:20;47.65;;;14.50;;
71767;SDS011;59604;52.138;5.446;2022-12-18T01:17:46;53.70;;;14.90;;
71767;SDS011;59604;52.138;5.446;2022-12-18T01:20:13;47.75;;;13.93;;
71767;SDS011;59604;52.138;5.446;2022-12-18T01:22:40;46.25;;;14.13;;
71767;SDS011;59604;52.138;5.446;2022-12-18T01:25:07;49.22;;;15.48;;
71767;SDS011;59604;52.138;5.446;2022-12-18T01:27:34;54.40;;;15.15;;
71767;SDS011;59604;52.138;5.446;2022-12-18T01:30:00;50.45;;;14.40;;
71767;SDS011;59604;52.138;5.446;2022-12-18T01:32:29;51.60;;;15.63;;
71767;SDS011;59604;52.138;5.446;2022-12-18T01:34:57;44.25;;;13.48;;
71767;SDS011;59604;52.138;5.446;2022-12-18T01:37:23;50.95;;;15.68;;
71767;SDS011;59604;52.138;5.446;2022-12-18T01:39:51;49.35;;;14.55;;
71767;SDS011;59604;52.138;5.446;2022-12-18T01:42:20;51.80;;;15.18;;
71767;SDS011;59604;52.138;5.446;2022-12-18T01:47:48;45.92;;;14.20;;
71767;SDS011;59604;52.138;5.446;2022-12-18T01:50:18;47.42;;;14.18;;
71767;SDS011;59604;52.138;5.446;2022-12-18T01:52:52;48.50;;;14.13;;
71767;SDS011;59604;52.138;5.446;2022-12-18T01:55:29;43.30;;;13.93;;
71767;SDS011;59604;52.138;5.446;2022-12-18T01:57:59;51.75;;;14.65;;
71767;SDS011;59604;52.138;5.446;2022-12-18T02:00:26;46.25;;;14.18;;
71767;SDS011;59604;52.138;5.446;2022-12-18T02:02:54;49.85;;;14.30;;
71767;SDS011;59604;52.138;5.446;2022-12-18T02:16:57;43.33;;;13.27;;
71767;SDS011;59604;52.138;5.446;2022-12-18T02:19:34;43.65;;;14.45;;
71767;SDS011;59604;52.138;5.446;2022-12-18T02:27:59;46.35;;;12.60;;
71767;SDS011;59604;52.138;5.446;2022-12-18T02:30:29;41.10;;;12.20;;
71767;SDS011;59604;52.138;5.446;2022-12-18T02:32:59;43.20;;;13.98;;
71767;SDS011;59604;52.138;5.446;2022-12-18T02:35:31;38.80;;;12.73;;
71767;SDS011;59604;52.138;5.446;2022-12-18T02:37:59;42.17;;;12.90;;
71767;SDS011;59604;52.138;5.446;2022-12-18T02:40:29;43.28;;;13.05;;
71767;SDS011;59604;52.138;5.446;2022-12-18T02:43:02;45.30;;;12.85;;
71767;SDS011;59604;52.138;5.446;2022-12-18T02:45:48;39.20;;;12.60;;
71767;SDS011;59604;52.138;5.446;2022-12-18T02:48:18;48.33;;;13.38;;
71767;SDS011;59604;52.138;5.446;2022-12-18T02:51:36;39.65;;;12.75;;
71767;SDS011;59604;52.138;5.446;2022-12-18T02:54:31;37.42;;;13.00;;
71767;SDS011;59604;52.138;5.446;2022-12-18T02:56:44;38.20;;;13.38;;
71767;SDS011;59604;52.138;5.446;2022-12-18T02:59:21;37.90;;;13.02;;
71767;SDS011;59604;52.138;5.446;2022-12-18T03:04:35;33.13;;;11.73;;
71767;SDS011;59604;52.138;5.446;2022-12-18T03:07:11;37.22;;;12.88;;
71767;SDS011;59604;52.138;5.446;2022-12-18T03:09:45;41.13;;;12.90;;
71767;SDS011;59604;52.138;5.446;2022-12-18T03:12:15;39.90;;;12.48;;
71767;SDS011;59604;52.138;5.446;2022-12-18T03:15:09;31.55;;;11.60;;
71767;SDS011;59604;52.138;5.446;2022-12-18T03:17:48;39.65;;;12.48;;
71767;SDS011;59604;52.138;5.446;2022-12-18T03:20:19;38.85;;;11.73;;
71767;SDS011;59604;52.138;5.446;2022-12-18T03:22:50;37.00;;;12.15;;
71767;SDS011;59604;52.138;5.446;2022-12-18T03:25:22;34.75;;;12.02;;
71767;SDS011;59604;52.138;5.446;2022-12-18T03:27:52;33.08;;;11.13;;
71767;SDS011;59604;52.138;5.446;2022-12-18T03:30:24;32.47;;;10.63;;
71767;SDS011;59604;52.138;5.446;2022-12-18T03:33:00;32.53;;;11.68;;
71767;SDS011;59604;52.138;5.446;2022-12-18T03:35:34;41.03;;;12.60;;
71767;SDS011;59604;52.138;5.446;2022-12-18T03:38:05;34.88;;;11.50;;
71767;SDS011;59604;52.138;5.446;2022-12-18T03:40:56;30.25;;;10.85;;
71767;SDS011;59604;52.138;5.446;2022-12-18T03:43:42;30.25;;;10.93;;
71767;SDS011;59604;52.138;5.446;2022-12-18T03:49:01;40.35;;;11.70;;
71767;SDS011;59604;52.138;5.446;2022-12-18T03:51:42;30.52;;;10.80;;
71767;SDS011;59604;52.138;5.446;2022-12-18T03:54:11;33.42;;;10.50;;
71767;SDS011;59604;52.138;5.446;2022-12-18T03:56:40;35.85;;;12.63;;
71767;SDS011;59604;52.138;5.446;2022-12-18T03:59:10;32.42;;;11.18;;
71767;SDS011;59604;52.138;5.446;2022-12-18T04:01:48;34.10;;;11.10;;
71767;SDS011;59604;52.138;5.446;2022-12-18T04:04:17;29.45;;;10.80;;
71767;SDS011;59604;52.138;5.446;2022-12-18T04:06:46;34.10;;;12.00;;
71767;SDS011;59604;52.138;5.446;2022-12-18T04:09:15;35.67;;;11.20;;
71767;SDS011;59604;52.138;5.446;2022-12-18T04:11:42;31.48;;;10.73;;
71767;SDS011;59604;52.138;5.446;2022-12-18T04:14:12;32.45;;;11.52;;
71767;SDS011;59604;52.138;5.446;2022-12-18T04:16:43;36.38;;;10.73;;
71767;SDS011;59604;52.138;5.446;2022-12-18T04:19:10;34.60;;;10.63;;
71767;SDS011;59604;52.138;5.446;2022-12-18T04:21:36;34.47;;;12.13;;
71767;SDS011;59604;52.138;5.446;2022-12-18T04:24:03;29.45;;;9.93;;
71767;SDS011;59604;52.138;5.446;2022-12-18T04:26:30;33.13;;;11.80;;
71767;SDS011;59604;52.138;5.446;2022-12-18T04:28:56;33.58;;;11.50;;
71767;SDS011;59604;52.138;5.446;2022-12-18T04:31:23;32.33;;;10.52;;
71767;SDS011;59604;52.138;5.446;2022-12-18T04:33:53;32.08;;;10.60;;
71767;SDS011;59604;52.138;5.446;2022-12-18T04:36:19;26.55;;;9.25;;
71767;SDS011;59604;52.138;5.446;2022-12-18T04:38:46;32.38;;;10.52;;
71767;SDS011;59604;52.138;5.446;2022-12-18T04:41:12;31.83;;;9.52;;
71767;SDS011;59604;52.138;5.446;2022-12-18T04:43:39;25.25;;;9.57;;
71767;SDS011;59604;52.138;5.446;2022-12-18T04:46:06;27.80;;;9.80;;
71767;SDS011;59604;52.138;5.446;2022-12-18T04:48:34;27.92;;;9.85;;
71767;SDS011;59604;52.138;5.446;2022-12-18T04:51:01;29.48;;;9.70;;
71767;SDS011;59604;52.138;5.446;2022-12-18T04:53:28;27.80;;;9.55;;
71767;SDS011;59604;52.138;5.446;2022-12-18T04:56:02;30.85;;;9.73;;
71767;SDS011;59604;52.138;5.446;2022-12-18T04:58:33;23.80;;;8.73;;
71767;SDS011;59604;52.138;5.446;2022-12-18T05:00:59;26.92;;;9.80;;
71767;SDS011;59604;52.138;5.446;2022-12-18T05:03:26;29.33;;;10.10;;
71767;SDS011;59604;52.138;5.446;2022-12-18T05:05:53;29.23;;;10.77;;
71767;SDS011;59604;52.138;5.446;2022-12-18T05:08:20;27.55;;;9.65;;
71767;SDS011;59604;52.138;5.446;2022-12-18T05:10:46;28.25;;;9.65;;
71767;SDS011;59604;52.138;5.446;2022-12-18T05:13:13;32.83;;;9.75;;
71767;SDS011;59604;52.138;5.446;2022-12-18T05:15:39;27.05;;;9.63;;
71767;SDS011;59604;52.138;5.446;2022-12-18T05:18:07;32.50;;;10.50;;
71767;SDS011;59604;52.138;5.446;2022-12-18T05:20:34;27.20;;;9.30;;
71767;SDS011;59604;52.138;5.446;2022-12-18T05:23:01;25.05;;;9.27;;
71767;SDS011;59604;52.138;5.446;2022-12-18T05:25:27;25.58;;;9.32;;
71767;SDS011;59604;52.138;5.446;2022-12-18T05:27:54;28.67;;;9.73;;
71767;SDS011;59604;52.138;5.446;2022-12-18T05:30:21;25.75;;;8.73;;
71767;SDS011;59604;52.138;5.446;2022-12-18T05:32:48;22.75;;;8.65;;
71767;SDS011;59604;52.138;5.446;2022-12-18T05:35:15;26.33;;;9.25;;
71767;SDS011;59604;52.138;5.446;2022-12-18T05:37:41;26.02;;;9.57;;
71767;SDS011;59604;52.138;5.446;2022-12-18T05:40:09;20.20;;;8.23;;
71767;SDS011;59604;52.138;5.446;2022-12-18T05:42:36;22.17;;;8.85;;
71767;SDS011;59604;52.138;5.446;2022-12-18T05:45:03;22.95;;;8.68;;
71767;SDS011;59604;52.138;5.446;2022-12-18T05:47:30;26.42;;;8.27;;
71767;SDS011;59604;52.138;5.446;2022-12-18T05:49:57;25.42;;;8.30;;
71767;SDS011;59604;52.138;5.446;2022-12-18T05:52:24;21.90;;;8.77;;
71767;SDS011;59604;52.138;5.446;2022-12-18T05:54:50;24.15;;;8.68;;
71767;SDS011;59604;52.138;5.446;2022-12-18T05:57:17;32.72;;;9.57;;
71767;SDS011;59604;52.138;5.446;2022-12-18T05:59:43;25.58;;;8.65;;
71767;SDS011;59604;52.138;5.446;2022-12-18T06:02:10;24.67;;;8.43;;
71767;SDS011;59604;52.138;5.446;2022-12-18T06:04:37;23.52;;;7.82;;
71767;SDS011;59604;52.138;5.446;2022-12-18T06:07:03;25.08;;;8.75;;
71767;SDS011;59604;52.138;5.446;2022-12-18T06:09:30;30.23;;;9.32;;
71767;SDS011;59604;52.138;5.446;2022-12-18T06:11:56;27.88;;;9.60;;
71767;SDS011;59604;52.138;5.446;2022-12-18T06:14:23;22.92;;;8.23;;
71767;SDS011;59604;52.138;5.446;2022-12-18T06:16:50;28.02;;;8.23;;
71767;SDS011;59604;52.138;5.446;2022-12-18T06:19:18;21.02;;;8.07;;
71767;SDS011;59604;52.138;5.446;2022-12-18T06:21:45;30.92;;;9.18;;
71767;SDS011;59604;52.138;5.446;2022-12-18T06:24:11;26.05;;;9.05;;
71767;SDS011;59604;52.138;5.446;2022-12-18T06:26:38;23.73;;;8.20;;
71767;SDS011;59604;52.138;5.446;2022-12-18T06:29:05;24.83;;;9.00;;
71767;SDS011;59604;52.138;5.446;2022-12-18T06:31:32;24.13;;;8.27;;
71767;SDS011;59604;52.138;5.446;2022-12-18T06:33:59;23.30;;;8.88;;
71767;SDS011;59604;52.138;5.446;2022-12-18T06:36:28;22.33;;;7.97;;
71767;SDS011;59604;52.138;5.446;2022-12-18T06:38:54;24.60;;;9.55;;
71767;SDS011;59604;52.138;5.446;2022-12-18T06:41:23;25.98;;;8.77;;
71767;SDS011;59604;52.138;5.446;2022-12-18T06:43:50;22.63;;;8.27;;
71767;SDS011;59604;52.138;5.446;2022-12-18T06:46:20;28.95;;;8.98;;
71767;SDS011;59604;52.138;5.446;2022-12-18T06:48:47;26.15;;;8.40;;
71767;SDS011;59604;52.138;5.446;2022-12-18T06:51:19;24.23;;;8.75;;
71767;SDS011;59604;52.138;5.446;2022-12-18T06:53:47;22.58;;;8.38;;
71767;SDS011;59604;52.138;5.446;2022-12-18T06:56:14;23.75;;;8.68;;
71767;SDS011;59604;52.138;5.446;2022-12-18T06:58:40;32.42;;;9.23;;
71767;SDS011;59604;52.138;5.446;2022-12-18T07:01:08;22.05;;;8.68;;
71767;SDS011;59604;52.138;5.446;2022-12-18T07:03:37;22.80;;;8.77;;
71767;SDS011;59604;52.138;5.446;2022-12-18T07:06:05;24.08;;;9.05;;
71767;SDS011;59604;52.138;5.446;2022-12-18T07:08:32;24.65;;;8.98;;
71767;SDS011;59604;52.138;5.446;2022-12-18T07:11:02;24.77;;;8.25;;
71767;SDS011;59604;52.138;5.446;2022-12-18T07:13:29;24.77;;;8.25;;
71767;SDS011;59604;52.138;5.446;2022-12-18T07:16:02;24.77;;;9.00;;
71767;SDS011;59604;52.138;5.446;2022-12-18T07:18:47;20.08;;;7.68;;
71767;SDS011;59604;52.138;5.446;2022-12-18T07:21:15;22.73;;;8.10;;
71767;SDS011;59604;52.138;5.446;2022-12-18T07:23:44;23.45;;;8.10;;
71767;SDS011;59604;52.138;5.446;2022-12-18T07:26:14;16.65;;;7.20;;
71767;SDS011;59604;52.138;5.446;2022-12-18T07:28:42;21.23;;;7.25;;
71767;SDS011;59604;52.138;5.446;2022-12-18T07:31:11;26.30;;;8.77;;
71767;SDS011;59604;52.138;5.446;2022-12-18T07:33:39;22.55;;;7.88;;
71767;SDS011;59604;52.138;5.446;2022-12-18T07:36:07;21.70;;;8.23;;
71767;SDS011;59604;52.138;5.446;2022-12-18T07:38:36;22.95;;;8.20;;
71767;SDS011;59604;52.138;5.446;2022-12-18T07:41:06;21.05;;;7.25;;
71767;SDS011;59604;52.138;5.446;2022-12-18T07:43:37;23.67;;;7.93;;
71767;SDS011;59604;52.138;5.446;2022-12-18T07:46:07;21.20;;;7.45;;
71767;SDS011;59604;52.138;5.446;2022-12-18T07:48:34;20.25;;;7.47;;
71767;SDS011;59604;52.138;5.446;2022-12-18T07:51:05;19.23;;;6.97;;
71767;SDS011;59604;52.138;5.446;2022-12-18T07:53:32;20.75;;;8.00;;
71767;SDS011;59604;52.138;5.446;2022-12-18T07:56:02;17.52;;;7.03;;
71767;SDS011;59604;52.138;5.446;2022-12-18T07:58:51;20.60;;;7.32;;
71767;SDS011;59604;52.138;5.446;2022-12-18T08:01:17;21.55;;;7.70;;
71767;SDS011;59604;52.138;5.446;2022-12-18T08:03:46;16.23;;;6.75;;
71767;SDS011;59604;52.138;5.446;2022-12-18T08:06:13;18.15;;;7.22;;
71767;SDS011;59604;52.138;5.446;2022-12-18T08:08:39;18.67;;;7.15;;
71767;SDS011;59604;52.138;5.446;2022-12-18T08:11:08;18.50;;;7.22;;
71767;SDS011;59604;52.138;5.446;2022-12-18T08:13:35;21.52;;;7.85;;
71767;SDS011;59604;52.138;5.446;2022-12-18T08:16:03;20.15;;;7.65;;
71767;SDS011;59604;52.138;5.446;2022-12-18T08:18:32;21.58;;;7.28;;
71767;SDS011;59604;52.138;5.446;2022-12-18T08:21:16;19.10;;;7.80;;
71767;SDS011;59604;52.138;5.446;2022-12-18T08:23:46;20.58;;;7.40;;
71767;SDS011;59604;52.138;5.446;2022-12-18T08:26:14;20.75;;;7.97;;
71767;SDS011;59604;52.138;5.446;2022-12-18T08:28:41;21.98;;;7.70;;
71767;SDS011;59604;52.138;5.446;2022-12-18T08:31:08;22.15;;;8.02;;
71767;SDS011;59604;52.138;5.446;2022-12-18T08:33:35;23.17;;;8.40;;
71767;SDS011;59604;52.138;5.446;2022-12-18T08:36:04;19.90;;;7.65;;
71767;SDS011;59604;52.138;5.446;2022-12-18T08:38:31;25.02;;;8.57;;
71767;SDS011;59604;52.138;5.446;2022-12-18T08:40:59;20.63;;;7.40;;
71767;SDS011;59604;52.138;5.446;2022-12-18T08:43:29;23.33;;;8.75;;
71767;SDS011;59604;52.138;5.446;2022-12-18T08:46:14;22.10;;;8.48;;
71767;SDS011;59604;52.138;5.446;2022-12-18T08:48:41;22.17;;;8.60;;
71767;SDS011;59604;52.138;5.446;2022-12-18T08:51:08;25.73;;;9.13;;
71767;SDS011;59604;52.138;5.446;2022-12-18T08:53:36;24.70;;;9.30;;
71767;SDS011;59604;52.138;5.446;2022-12-18T08:56:04;22.92;;;9.35;;
71767;SDS011;59604;52.138;5.446;2022-12-18T08:58:31;21.95;;;8.77;;
71767;SDS011;59604;52.138;5.446;2022-12-18T09:01:01;26.45;;;9.50;;
71767;SDS011;59604;52.138;5.446;2022-12-18T09:03:31;22.65;;;8.55;;
71767;SDS011;59604;52.138;5.446;2022-12-18T09:05:58;21.70;;;7.85;;
71767;SDS011;59604;52.138;5.446;2022-12-18T09:08:26;25.42;;;9.43;;
71767;SDS011;59604;52.138;5.446;2022-12-18T09:10:52;20.60;;;8.27;;
71767;SDS011;59604;52.138;5.446;2022-12-18T09:13:19;21.50;;;8.23;;
71767;SDS011;59604;52.138;5.446;2022-12-18T09:15:50;21.67;;;8.70;;
71767;SDS011;59604;52.138;5.446;2022-12-18T09:18:18;21.88;;;8.75;;
71767;SDS011;59604;52.138;5.446;2022-12-18T09:20:47;21.42;;;8.85;;
71767;SDS011;59604;52.138;5.446;2022-12-18T09:23:14;21.05;;;9.27;;
71767;SDS011;59604;52.138;5.446;2022-12-18T09:25:41;20.83;;;8.73;;
71767;SDS011;59604;52.138;5.446;2022-12-18T09:28:12;24.58;;;9.10;;
71767;SDS011;59604;52.138;5.446;2022-12-18T09:30:41;24.55;;;8.82;;
71767;SDS011;59604;52.138;5.446;2022-12-18T09:33:12;23.45;;;8.57;;
71767;SDS011;59604;52.138;5.446;2022-12-18T09:35:40;21.40;;;8.70;;
71767;SDS011;59604;52.138;5.446;2022-12-18T09:38:08;23.15;;;9.10;;
71767;SDS011;59604;52.138;5.446;2022-12-18T09:40:43;21.13;;;8.65;;
71767;SDS011;59604;52.138;5.446;2022-12-18T09:46:06;20.65;;;8.60;;
71767;SDS011;59604;52.138;5.446;2022-12-18T09:48:40;20.10;;;7.72;;
71767;SDS011;59604;52.138;5.446;2022-12-18T09:51:14;22.88;;;8.75;;
71767;SDS011;59604;52.138;5.446;2022-12-18T09:53:45;20.27;;;7.35;;
71767;SDS011;59604;52.138;5.446;2022-12-18T09:56:21;18.98;;;7.00;;
71767;SDS011;59604;52.138;5.446;2022-12-18T09:58:51;18.88;;;7.25;;
71767;SDS011;59604;52.138;5.446;2022-12-18T10:01:24;23.05;;;7.80;;
71767;SDS011;59604;52.138;5.446;2022-12-18T10:04:00;16.50;;;6.50;;
71767;SDS011;59604;52.138;5.446;2022-12-18T10:06:29;17.85;;;6.38;;
71767;SDS011;59604;52.138;5.446;2022-12-18T10:09:00;20.65;;;8.18;;
71767;SDS011;59604;52.138;5.446;2022-12-18T10:11:45;18.42;;;7.35;;
71767;SDS011;59604;52.138;5.446;2022-12-18T10:14:23;19.77;;;7.65;;
71767;SDS011;59604;52.138;5.446;2022-12-18T10:17:20;18.67;;;6.93;;
71767;SDS011;59604;52.138;5.446;2022-12-18T10:19:51;19.35;;;7.65;;
71767;SDS011;59604;52.138;5.446;2022-12-18T10:25:18;19.05;;;7.28;;
71767;SDS011;59604;52.138;5.446;2022-12-18T10:27:46;19.63;;;7.07;;
71767;SDS011;59604;52.138;5.446;2022-12-18T10:30:14;20.95;;;7.60;;
71767;SDS011;59604;52.138;5.446;2022-12-18T10:32:47;20.55;;;7.68;;
71767;SDS011;59604;52.138;5.446;2022-12-18T10:35:21;15.32;;;7.00;;
71767;SDS011;59604;52.138;5.446;2022-12-18T10:38:04;19.63;;;7.45;;
71767;SDS011;59604;52.138;5.446;2022-12-18T10:43:33;18.95;;;7.72;;
71767;SDS011;59604;52.138;5.446;2022-12-18T10:51:03;20.75;;;7.35;;
71767;SDS011;59604;52.138;5.446;2022-12-18T10:53:38;17.55;;;7.10;;
71767;SDS011;59604;52.138;5.446;2022-12-18T10:56:07;17.98;;;7.50;;
71767;SDS011;59604;52.138;5.446;2022-12-18T10:58:36;17.42;;;6.90;;
71767;SDS011;59604;52.138;5.446;2022-12-18T11:03:36;18.30;;;7.07;;
71767;SDS011;59604;52.138;5.446;2022-12-18T11:06:06;42.85;;;13.52;;
71767;SDS011;59604;52.138;5.446;2022-12-18T11:08:33;20.55;;;7.57;;
71767;SDS011;59604;52.138;5.446;2022-12-18T11:10:59;20.55;;;7.32;;
71767;SDS011;59604;52.138;5.446;2022-12-18T11:13:27;18.10;;;6.90;;
71767;SDS011;59604;52.138;5.446;2022-12-18T11:15:56;17.08;;;6.38;;
71767;SDS011;59604;52.138;5.446;2022-12-18T11:18:32;16.83;;;7.03;;
71767;SDS011;59604;52.138;5.446;2022-12-18T11:21:05;18.10;;;6.93;;
71767;SDS011;59604;52.138;5.446;2022-12-18T11:23:34;18.92;;;7.47;;
71767;SDS011;59604;52.138;5.446;2022-12-18T11:26:03;16.00;;;6.38;;
71767;SDS011;59604;52.138;5.446;2022-12-18T11:28:39;16.55;;;7.45;;
71767;SDS011;59604;52.138;5.446;2022-12-18T11:31:21;18.17;;;7.30;;
71767;SDS011;59604;52.138;5.446;2022-12-18T11:36:55;18.48;;;6.60;;
71767;SDS011;59604;52.138;5.446;2022-12-18T11:39:41;16.95;;;6.68;;
71767;SDS011;59604;52.138;5.446;2022-12-18T11:42:24;18.42;;;6.90;;
71767;SDS011;59604;52.138;5.446;2022-12-18T11:45:00;16.75;;;6.68;;
71767;SDS011;59604;52.138;5.446;2022-12-18T11:50:17;17.70;;;6.53;;
71767;SDS011;59604;52.138;5.446;2022-12-18T11:52:48;16.88;;;6.55;;
71767;SDS011;59604;52.138;5.446;2022-12-18T11:57:58;16.83;;;6.38;;
71767;SDS011;59604;52.138;5.446;2022-12-18T12:00:44;17.55;;;6.88;;
71767;SDS011;59604;52.138;5.446;2022-12-18T12:09:49;16.42;;;6.43;;
71767;SDS011;59604;52.138;5.446;2022-12-18T12:27:30;21.88;;;7.82;;
71767;SDS011;59604;52.138;5.446;2022-12-18T12:30:15;18.50;;;7.85;;
71767;SDS011;59604;52.138;5.446;2022-12-18T12:38:31;18.50;;;7.20;;
71767;SDS011;59604;52.138;5.446;2022-12-18T12:41:16;20.30;;;7.70;;
71767;SDS011;59604;52.138;5.446;2022-12-18T12:44:07;18.88;;;7.18;;
71767;SDS011;59604;52.138;5.446;2022-12-18T12:46:41;18.75;;;7.30;;
71767;SDS011;59604;52.138;5.446;2022-12-18T12:49:12;19.80;;;7.57;;
71767;SDS011;59604;52.138;5.446;2022-12-18T12:51:43;26.33;;;8.32;;
71767;SDS011;59604;52.138;5.446;2022-12-18T12:54:16;19.35;;;7.38;;
71767;SDS011;59604;52.138;5.446;2022-12-18T13:05:24;17.75;;;7.05;;
71767;SDS011;59604;52.138;5.446;2022-12-18T13:08:08;15.68;;;6.88;;
71767;SDS011;59604;52.138;5.446;2022-12-18T13:10:40;18.15;;;6.95;;
71767;SDS011;59604;52.138;5.446;2022-12-18T13:13:15;17.17;;;6.70;;
71767;SDS011;59604;52.138;5.446;2022-12-18T13:16:02;18.02;;;6.72;;
71767;SDS011;59604;52.138;5.446;2022-12-18T13:18:31;18.08;;;7.20;;
71767;SDS011;59604;52.138;5.446;2022-12-18T13:23:35;21.95;;;7.60;;
71767;SDS011;59604;52.138;5.446;2022-12-18T13:33:41;22.75;;;7.93;;
71767;SDS011;59604;52.138;5.446;2022-12-18T13:36:32;18.15;;;7.20;;
71767;SDS011;59604;52.138;5.446;2022-12-18T13:48:16;17.63;;;7.40;;
71767;SDS011;59604;52.138;5.446;2022-12-18T13:50:49;22.33;;;8.45;;
71767;SDS011;59604;52.138;5.446;2022-12-18T13:53:24;22.73;;;7.50;;
71767;SDS011;59604;52.138;5.446;2022-12-18T13:55:54;20.88;;;7.63;;
71767;SDS011;59604;52.138;5.446;2022-12-18T13:58:21;20.63;;;7.88;;
71767;SDS011;59604;52.138;5.446;2022-12-18T14:00:48;18.38;;;7.53;;
71767;SDS011;59604;52.138;5.446;2022-12-18T14:03:17;21.00;;;8.60;;
71767;SDS011;59604;52.138;5.446;2022-12-18T14:05:52;23.75;;;8.77;;
71767;SDS011;59604;52.138;5.446;2022-12-18T14:08:21;21.27;;;8.00;;
71767;SDS011;59604;52.138;5.446;2022-12-18T14:10:54;21.17;;;8.30;;
71767;SDS011;59604;52.138;5.446;2022-12-18T14:13:26;21.67;;;7.93;;
71767;SDS011;59604;52.138;5.446;2022-12-18T14:21:00;20.70;;;7.65;;
71767;SDS011;59604;52.138;5.446;2022-12-18T14:23:39;23.40;;;7.68;;
71767;SDS011;59604;52.138;5.446;2022-12-18T14:28:53;22.27;;;7.78;;
71767;SDS011;59604;52.138;5.446;2022-12-18T14:31:22;19.45;;;7.80;;
71767;SDS011;59604;52.138;5.446;2022-12-18T14:33:51;20.65;;;8.05;;
71767;SDS011;59604;52.138;5.446;2022-12-18T14:36:19;20.42;;;7.43;;
71767;SDS011;59604;52.138;5.446;2022-12-18T14:38:54;18.77;;;7.45;;
71767;SDS011;59604;52.138;5.446;2022-12-18T14:41:23;18.90;;;7.45;;
71767;SDS011;59604;52.138;5.446;2022-12-18T14:43:51;20.98;;;7.80;;
71767;SDS011;59604;52.138;5.446;2022-12-18T14:49:03;20.45;;;8.18;;
71767;SDS011;59604;52.138;5.446;2022-12-18T14:51:32;21.80;;;8.00;;
71767;SDS011;59604;52.138;5.446;2022-12-18T14:54:01;22.02;;;7.88;;
71767;SDS011;59604;52.138;5.446;2022-12-18T14:56:47;19.08;;;7.93;;
71767;SDS011;59604;52.138;5.446;2022-12-18T14:59:19;19.42;;;7.72;;
71767;SDS011;59604;52.138;5.446;2022-12-18T15:07:14;18.98;;;7.32;;
71767;SDS011;59604;52.138;5.446;2022-12-18T15:10:08;20.48;;;7.13;;
71767;SDS011;59604;52.138;5.446;2022-12-18T15:12:41;21.80;;;7.75;;
71767;SDS011;59604;52.138;5.446;2022-12-18T15:23:22;17.77;;;7.18;;
71767;SDS011;59604;52.138;5.446;2022-12-18T15:25:56;20.17;;;7.57;;
71767;SDS011;59604;52.138;5.446;2022-12-18T15:36:20;18.92;;;7.03;;
71767;SDS011;59604;52.138;5.446;2022-12-18T15:38:52;22.15;;;8.80;;
71767;SDS011;59604;52.138;5.446;2022-12-18T15:41:31;20.08;;;7.97;;
71767;SDS011;59604;52.138;5.446;2022-12-18T15:44:01;19.38;;;7.30;;
71767;SDS011;59604;52.138;5.446;2022-12-18T15:46:29;22.90;;;8.25;;
71767;SDS011;59604;52.138;5.446;2022-12-18T15:48:57;31.58;;;10.55;;
71767;SDS011;59604;52.138;5.446;2022-12-18T15:51:31;21.77;;;8.43;;
71767;SDS011;59604;52.138;5.446;2022-12-18T15:54:00;26.88;;;11.40;;
71767;SDS011;59604;52.138;5.446;2022-12-18T15:56:32;20.60;;;8.77;;
71767;SDS011;59604;52.138;5.446;2022-12-18T15:59:18;45.67;;;15.85;;
71767;SDS011;59604;52.138;5.446;2022-12-18T16:01:50;23.48;;;9.27;;
71767;SDS011;59604;52.138;5.446;2022-12-18T16:04:19;23.67;;;9.30;;
71767;SDS011;59604;52.138;5.446;2022-12-18T16:06:48;23.17;;;9.38;;
71767;SDS011;59604;52.138;5.446;2022-12-18T16:09:35;33.28;;;12.93;;
71767;SDS011;59604;52.138;5.446;2022-12-18T16:12:02;24.50;;;9.55;;
71767;SDS011;59604;52.138;5.446;2022-12-18T16:14:30;24.27;;;9.48;;
71767;SDS011;59604;52.138;5.446;2022-12-18T16:16:58;23.33;;;9.02;;
71767;SDS011;59604;52.138;5.446;2022-12-18T16:19:28;24.92;;;8.82;;
71767;SDS011;59604;52.138;5.446;2022-12-18T16:21:56;24.92;;;9.05;;
71767;SDS011;59604;52.138;5.446;2022-12-18T16:24:24;24.25;;;9.15;;
71767;SDS011;59604;52.138;5.446;2022-12-18T16:26:54;24.15;;;9.07;;
71767;SDS011;59604;52.138;5.446;2022-12-18T16:29:22;24.50;;;9.00;;
71767;SDS011;59604;52.138;5.446;2022-12-18T16:31:53;22.75;;;8.93;;
71767;SDS011;59604;52.138;5.446;2022-12-18T16:34:21;25.38;;;9.00;;
71767;SDS011;59604;52.138;5.446;2022-12-18T16:36:51;20.80;;;8.35;;
71767;SDS011;59604;52.138;5.446;2022-12-18T16:39:19;25.20;;;9.05;;
71767;SDS011;59604;52.138;5.446;2022-12-18T16:41:48;21.50;;;9.20;;
71767;SDS011;59604;52.138;5.446;2022-12-18T16:44:15;25.23;;;9.68;;
71767;SDS011;59604;52.138;5.446;2022-12-18T16:46:42;24.38;;;9.93;;
71767;SDS011;59604;52.138;5.446;2022-12-18T16:49:15;27.45;;;9.88;;
71767;SDS011;59604;52.138;5.446;2022-12-18T16:51:43;26.23;;;9.77;;
71767;SDS011;59604;52.138;5.446;2022-12-18T16:54:12;24.45;;;9.35;;
71767;SDS011;59604;52.138;5.446;2022-12-18T16:56:44;24.08;;;9.75;;
71767;SDS011;59604;52.138;5.446;2022-12-18T16:59:13;25.20;;;9.93;;
71767;SDS011;59604;52.138;5.446;2022-12-18T17:01:40;26.90;;;10.07;;
71767;SDS011;59604;52.138;5.446;2022-12-18T17:04:07;24.92;;;10.40;;
71767;SDS011;59604;52.138;5.446;2022-12-18T17:06:38;26.25;;;9.80;;
71767;SDS011;59604;52.138;5.446;2022-12-18T17:09:08;23.83;;;9.48;;